Terminal Aerodrome Forecast
Issued by NWS

Home | Current Version | Previous Version | Text Only | Print | Product List | Glossary On
Versions: 1 2 3 4 5 6 7 8 9 10 11 12 13 14 15
909
FTUS45 KTFX 272339
TAFBZN
TAF
KBZN 272339Z 2800/2906 VRB05KT P6SM -TSRA SCT060CB BKN110
     FM280100 30009KT P6SM SCT050 BKN120
      TEMPO 2802/2804 -SHRA BKN050
     FM281800 29009KT P6SM SCT060 BKN100 PROB30 2821/2824 -SHRA
      BKN050=

USA.gov is the U.S. government's official web portal to all federal, state and local government web resources and services.